Novi, MI (48374)

18:06 EST 6. Únor 2016 (GMT -0500)
Edinborough | | Change Station
CLOSE
Current Station
Osobní povětrnostní stanice
Location: Novi, MI
Nadmořská výška: 991 ft
Poblíž povětrnostní stanice

Výška 991 ft 42.46 °N, 83.52 °W | Updated 6 minutes ago

Částečně oblačno
Částečně oblačno
33.4 °F
Pocit jako 33 °F
S
1.7
Vítr proměnlivý Vítr od jižní

Dnes
Vysoké -- | Nízké -- °F
--% Možnost srážek
Včera
Vysoké -- | Nízké -- °F
Precip. -- inčů
Tlak 30.17 inčů
Viditelnost 10.0 mílí
Zataženo Polojasno 6000 ft
Skoro zataženo 18000 ft
Ochlazování větrem 33 °F
Rosný bod 23 °F
Vlhkost 66%
Dešťové srážky 0.00 inčů
Sněhová pokrývka Není k dispozici
7:42 AM 5:53 PM
Ubývající srpek, 4% visible
METAR KPTK 062253Z 22008KT 10SM SCT060 BKN180 02/M08 A3013 RMK AO2 SLP215 T00221078
Tlak 30.17 inčů
Viditelnost 10.0 mílí
Zataženo Polojasno 6000 ft
Skoro zataženo 18000 ft
Ochlazování větrem 33 °F
Rosný bod 23 °F
Vlhkost 66%
Dešťové srážky 0.00 inčů
Sněhová pokrývka Není k dispozici
7:42 AM 5:53 PM
Ubývající srpek, 4% visible
METAR KPTK 062253Z 22008KT 10SM SCT060 BKN180 02/M08 A3013 RMK AO2 SLP215 T00221078

10-Day Weather Forecast

Almanac

Astronomie

Feb. 06, 2016 Východ Západ
Skutečný čas
Občanský soumrak
Námořní soumrak
Astronomický soumrak
Měsíc
Délka denního světla
Délka dne
Tomorrow will be .
, % of the Moon is Illuminated

Dnešní extrémy

State Highs State Lows

Community

WunderPhotos

Upload Photos

1,891,090 snímků staženo!

WunderBlog® & News

Nearby

Kvalita ovzduší

  Kvalita ovzduší Index kvality ovzduší Polutant
Not available.

Výška sněhu

Station Hloubka Nadmořská výška

Seizmická činnost

Město Distance Mag. Čas & datum
Minimální zobrazený rozsah je 2.5.

Pobřežní teplota vody

Lokalita Teplota

Stations

Poblíž povětrnostní stanice

Lokace stanice Tepl. Ochlazování větrem Rosný bod Vlhkost Vítr Precip. Výška Čas hlášení Typ
                   

Watches & Warnings

There are currently no watches in effect.